sensor_id;sensor_type;location;lat;lon;timestamp;P1;durP1;ratioP1;P2;durP2;ratioP2
9489;SDS011;4783;42.734;23.288;2022-10-30T07:44:24;21.50;;;14.43;;
9489;SDS011;4783;42.734;23.288;2022-10-30T07:46:50;19.25;;;15.68;;
9489;SDS011;4783;42.734;23.288;2022-10-30T07:49:15;19.92;;;15.15;;
9489;SDS011;4783;42.734;23.288;2022-10-30T07:51:40;29.42;;;21.83;;
9489;SDS011;4783;42.734;23.288;2022-10-30T08:09:28;23.95;;;18.08;;
9489;SDS011;4783;42.734;23.288;2022-10-30T08:40:02;18.33;;;14.18;;
9489;SDS011;4783;42.734;23.288;2022-10-30T08:42:28;19.58;;;14.65;;
9489;SDS011;4783;42.734;23.288;2022-10-30T08:44:53;22.70;;;15.88;;
9489;SDS011;4783;42.734;23.288;2022-10-30T08:47:18;16.27;;;13.00;;
9489;SDS011;4783;42.734;23.288;2022-10-30T08:49:43;13.63;;;11.85;;
9489;SDS011;4783;42.734;23.288;2022-10-30T08:52:09;15.93;;;11.40;;
9489;SDS011;4783;42.734;23.288;2022-10-30T08:54:34;21.88;;;13.00;;
9489;SDS011;4783;42.734;23.288;2022-10-30T08:56:59;19.88;;;13.00;;
9489;SDS011;4783;42.734;23.288;2022-10-30T08:59:25;22.05;;;15.63;;
9489;SDS011;4783;42.734;23.288;2022-10-30T09:01:50;18.67;;;12.23;;
9489;SDS011;4783;42.734;23.288;2022-10-30T09:04:15;15.77;;;11.85;;
9489;SDS011;4783;42.734;23.288;2022-10-30T09:06:40;12.75;;;10.98;;
9489;SDS011;4783;42.734;23.288;2022-10-30T09:09:06;19.35;;;11.50;;
9489;SDS011;4783;42.734;23.288;2022-10-30T09:11:31;18.88;;;14.20;;
9489;SDS011;4783;42.734;23.288;2022-10-30T09:13:56;18.33;;;12.52;;
9489;SDS011;4783;42.734;23.288;2022-10-30T09:16:21;15.00;;;11.40;;
9489;SDS011;4783;42.734;23.288;2022-10-30T09:18:47;17.55;;;11.88;;
9489;SDS011;4783;42.734;23.288;2022-10-30T09:21:12;16.17;;;11.60;;
9489;SDS011;4783;42.734;23.288;2022-10-30T09:23:37;13.32;;;11.40;;
9489;SDS011;4783;42.734;23.288;2022-10-30T09:26:03;14.90;;;11.15;;
9489;SDS011;4783;42.734;23.288;2022-10-30T09:28:28;17.77;;;11.18;;
9489;SDS011;4783;42.734;23.288;2022-10-30T09:30:53;12.65;;;10.48;;
9489;SDS011;4783;42.734;23.288;2022-10-30T09:33:20;17.27;;;10.23;;
9489;SDS011;4783;42.734;23.288;2022-10-30T09:35:45;18.58;;;11.73;;
9489;SDS011;4783;42.734;23.288;2022-10-30T09:38:10;16.55;;;11.38;;
9489;SDS011;4783;42.734;23.288;2022-10-30T09:40:50;14.40;;;10.63;;
9489;SDS011;4783;42.734;23.288;2022-10-30T09:46:28;14.85;;;10.50;;
9489;SDS011;4783;42.734;23.288;2022-10-30T09:48:50;18.40;;;11.98;;
9489;SDS011;4783;42.734;23.288;2022-10-30T09:56:13;15.00;;;10.13;;
9489;SDS011;4783;42.734;23.288;2022-10-30T10:01:30;11.70;;;8.40;;
9489;SDS011;4783;42.734;23.288;2022-10-30T10:06:26;11.73;;;8.38;;
9489;SDS011;4783;42.734;23.288;2022-10-30T10:11:22;12.35;;;7.93;;
9489;SDS011;4783;42.734;23.288;2022-10-30T10:13:52;14.98;;;7.57;;
9489;SDS011;4783;42.734;23.288;2022-10-30T10:16:22;9.55;;;7.32;;
9489;SDS011;4783;42.734;23.288;2022-10-30T10:18:54;11.73;;;7.85;;
9489;SDS011;4783;42.734;23.288;2022-10-30T10:21:25;9.63;;;6.90;;
9489;SDS011;4783;42.734;23.288;2022-10-30T10:23:54;13.48;;;6.55;;
9489;SDS011;4783;42.734;23.288;2022-10-30T10:26:42;11.95;;;6.57;;
9489;SDS011;4783;42.734;23.288;2022-10-30T10:29:17;10.25;;;6.47;;
9489;SDS011;4783;42.734;23.288;2022-10-30T10:31:49;12.30;;;7.13;;
9489;SDS011;4783;42.734;23.288;2022-10-30T10:34:43;9.35;;;6.97;;
9489;SDS011;4783;42.734;23.288;2022-10-30T10:37:10;13.52;;;6.72;;
9489;SDS011;4783;42.734;23.288;2022-10-30T10:45:05;11.68;;;6.47;;
9489;SDS011;4783;42.734;23.288;2022-10-30T10:55:15;12.38;;;5.72;;
9489;SDS011;4783;42.734;23.288;2022-10-30T10:57:41;11.57;;;5.60;;
9489;SDS011;4783;42.734;23.288;2022-10-30T11:00:12;10.50;;;5.65;;
9489;SDS011;4783;42.734;23.288;2022-10-30T11:05:05;8.40;;;4.90;;
9489;SDS011;4783;42.734;23.288;2022-10-30T11:07:46;8.98;;;4.90;;
9489;SDS011;4783;42.734;23.288;2022-10-30T11:10:13;8.23;;;4.38;;
9489;SDS011;4783;42.734;23.288;2022-10-30T11:12:38;8.98;;;3.80;;
9489;SDS011;4783;42.734;23.288;2022-10-30T11:15:11;7.20;;;4.10;;
9489;SDS011;4783;42.734;23.288;2022-10-30T11:17:44;6.00;;;4.30;;
9489;SDS011;4783;42.734;23.288;2022-10-30T11:20:50;8.90;;;4.40;;
9489;SDS011;4783;42.734;23.288;2022-10-30T11:23:28;11.90;;;4.18;;
9489;SDS011;4783;42.734;23.288;2022-10-30T11:25:49;11.55;;;4.13;;
9489;SDS011;4783;42.734;23.288;2022-10-30T11:28:19;7.22;;;4.05;;
9489;SDS011;4783;42.734;23.288;2022-10-30T11:30:51;12.38;;;3.53;;
9489;SDS011;4783;42.734;23.288;2022-10-30T11:33:20;9.77;;;3.67;;
9489;SDS011;4783;42.734;23.288;2022-10-30T11:35:46;7.30;;;3.65;;
9489;SDS011;4783;42.734;23.288;2022-10-30T11:38:12;10.68;;;3.55;;
9489;SDS011;4783;42.734;23.288;2022-10-30T11:40:38;10.55;;;3.53;;
9489;SDS011;4783;42.734;23.288;2022-10-30T11:43:05;4.70;;;2.95;;
9489;SDS011;4783;42.734;23.288;2022-10-30T11:45:37;10.45;;;3.42;;
9489;SDS011;4783;42.734;23.288;2022-10-30T11:48:16;5.90;;;2.75;;
9489;SDS011;4783;42.734;23.288;2022-10-30T11:50:44;8.32;;;3.22;;
9489;SDS011;4783;42.734;23.288;2022-10-30T11:53:12;10.18;;;3.13;;
9489;SDS011;4783;42.734;23.288;2022-10-30T11:55:45;12.07;;;3.08;;
9489;SDS011;4783;42.734;23.288;2022-10-30T11:58:19;6.22;;;3.00;;
9489;SDS011;4783;42.734;23.288;2022-10-30T12:00:46;10.88;;;2.80;;
9489;SDS011;4783;42.734;23.288;2022-10-30T12:03:27;6.45;;;2.67;;
9489;SDS011;4783;42.734;23.288;2022-10-30T12:05:52;7.95;;;2.75;;
9489;SDS011;4783;42.734;23.288;2022-10-30T12:08:30;6.80;;;2.83;;
9489;SDS011;4783;42.734;23.288;2022-10-30T12:10:57;13.95;;;2.85;;
9489;SDS011;4783;42.734;23.288;2022-10-30T12:13:23;4.30;;;2.45;;
9489;SDS011;4783;42.734;23.288;2022-10-30T12:16:01;6.85;;;2.60;;
9489;SDS011;4783;42.734;23.288;2022-10-30T12:18:27;5.82;;;2.60;;
9489;SDS011;4783;42.734;23.288;2022-10-30T12:20:54;6.55;;;2.60;;
9489;SDS011;4783;42.734;23.288;2022-10-30T12:23:21;9.82;;;3.17;;
9489;SDS011;4783;42.734;23.288;2022-10-30T12:25:50;7.22;;;2.92;;
9489;SDS011;4783;42.734;23.288;2022-10-30T12:28:16;7.53;;;2.70;;
9489;SDS011;4783;42.734;23.288;2022-10-30T12:31:05;8.07;;;2.95;;
9489;SDS011;4783;42.734;23.288;2022-10-30T12:33:35;3.10;;;2.30;;
9489;SDS011;4783;42.734;23.288;2022-10-30T12:36:02;6.63;;;2.10;;
9489;SDS011;4783;42.734;23.288;2022-10-30T12:38:34;2.55;;;1.85;;
9489;SDS011;4783;42.734;23.288;2022-10-30T12:43:41;5.97;;;1.90;;
9489;SDS011;4783;42.734;23.288;2022-10-30T12:48:51;5.80;;;2.50;;
9489;SDS011;4783;42.734;23.288;2022-10-30T12:51:28;5.97;;;2.20;;
9489;SDS011;4783;42.734;23.288;2022-10-30T12:53:59;5.50;;;2.10;;
9489;SDS011;4783;42.734;23.288;2022-10-30T12:56:28;4.63;;;2.03;;
9489;SDS011;4783;42.734;23.288;2022-10-30T12:59:20;12.10;;;2.80;;
9489;SDS011;4783;42.734;23.288;2022-10-30T13:01:43;4.57;;;1.90;;
9489;SDS011;4783;42.734;23.288;2022-10-30T13:04:17;7.55;;;1.83;;
9489;SDS011;4783;42.734;23.288;2022-10-30T13:07:02;3.90;;;1.90;;
9489;SDS011;4783;42.734;23.288;2022-10-30T13:09:43;5.20;;;1.95;;
9489;SDS011;4783;42.734;23.288;2022-10-30T13:12:18;8.50;;;2.00;;
9489;SDS011;4783;42.734;23.288;2022-10-30T13:14:46;10.77;;;2.97;;
9489;SDS011;4783;42.734;23.288;2022-10-30T13:17:13;10.85;;;2.65;;
9489;SDS011;4783;42.734;23.288;2022-10-30T13:19:39;5.90;;;2.50;;
